Time;durP1;ratioP1;P1;durP2;ratioP2;P2;SDS_P1;SDS_P2;PMS_P1;PMS_P2;Temp;Humidity;BMP_temperature;BMP_pressure;BME280_temperature;BME280_humidity;BME280_pressure;Samples;Min_cycle;Max_cycle;Signal;HPM_P1;HPM_P2
2022/03/14 00:00:21;;;;;;;;;16.00;14.75;;;;;;;;5019704;28;11549;-77
2022/03/14 00:02:50;;;;;;;;;12.00;10.75;;;;;;;;5025351;28;12323;-75
2022/03/14 00:05:17;;;;;;;;;14.25;14.25;;;;;;;;5019953;28;11521;-77
2022/03/14 00:07:46;;;;;;;;;14.50;14.00;;;;;;;;5026228;28;11624;-75
2022/03/14 00:10:15;;;;;;;;;17.00;17.00;;;;;;;;5020604;28;11550;-74
2022/03/14 00:12:43;;;;;;;;;18.00;15.25;;;;;;;;5021960;28;11598;-76
2022/03/14 00:15:11;;;;;;;;;19.25;16.00;;;;;;;;5021236;28;11450;-74
2022/03/14 00:17:40;;;;;;;;;13.00;13.00;;;;;;;;5021484;28;11545;-77
2022/03/14 00:20:12;;;;;;;;;16.00;13.25;;;;;;;;5020453;28;11464;-76
2022/03/14 00:22:40;;;;;;;;;18.00;15.25;;;;;;;;5003169;28;11542;-76
2022/03/14 00:25:09;;;;;;;;;17.50;15.75;;;;;;;;5021534;28;12362;-77
2022/03/14 00:27:37;;;;;;;;;17.25;17.25;;;;;;;;5021003;28;11434;-74
2022/03/14 00:30:05;;;;;;;;;13.50;11.00;;;;;;;;5002635;28;11528;-75
2022/03/14 00:32:32;;;;;;;;;20.50;16.25;;;;;;;;5024648;28;12159;-77
2022/03/14 00:35:00;;;;;;;;;15.00;15.00;;;;;;;;5021833;28;12226;-77
2022/03/14 00:37:28;;;;;;;;;14.25;13.25;;;;;;;;5020841;28;11594;-75
2022/03/14 00:39:56;;;;;;;;;15.75;11.75;;;;;;;;5017303;28;11487;-77
2022/03/14 00:42:25;;;;;;;;;13.00;13.00;;;;;;;;5020275;28;12278;-75
2022/03/14 00:44:52;;;;;;;;;14.75;13.50;;;;;;;;5020908;28;12320;-77
2022/03/14 00:47:21;;;;;;;;;14.75;11.25;;;;;;;;5022085;28;11415;-74
2022/03/14 00:49:48;;;;;;;;;12.75;12.75;;;;;;;;5018963;28;11492;-76
2022/03/14 00:52:17;;;;;;;;;15.25;11.50;;;;;;;;5020065;28;11434;-74
2022/03/14 00:54:46;;;;;;;;;10.00;10.00;;;;;;;;5021590;28;11457;-75
2022/03/14 00:57:15;;;;;;;;;11.75;10.00;;;;;;;;5019871;28;12200;-78
2022/03/14 00:59:42;;;;;;;;;13.50;12.00;;;;;;;;5021006;28;11513;-78
2022/03/14 01:02:10;;;;;;;;;12.00;11.00;;;;;;;;5020756;28;11367;-78
2022/03/14 01:04:37;;;;;;;;;12.25;10.50;;;;;;;;5020307;28;12252;-76
2022/03/14 01:07:05;;;;;;;;;6.25;6.25;;;;;;;;5019516;28;11440;-75
2022/03/14 01:09:33;;;;;;;;;9.25;9.25;;;;;;;;5004253;28;11413;-74
2022/03/14 01:12:03;;;;;;;;;13.25;10.25;;;;;;;;5019333;28;11469;-74
2022/03/14 01:14:30;;;;;;;;;10.50;8.25;;;;;;;;5020221;28;11585;-77
2022/03/14 01:16:58;;;;;;;;;9.50;9.50;;;;;;;;5036328;28;11444;-75
2022/03/14 01:19:25;;;;;;;;;11.50;9.75;;;;;;;;5023374;28;11447;-75
2022/03/14 01:21:53;;;;;;;;;11.00;11.00;;;;;;;;5001841;28;11985;-75
2022/03/14 01:24:20;;;;;;;;;7.50;7.50;;;;;;;;5019563;28;12233;-75
2022/03/14 01:26:47;;;;;;;;;12.25;7.50;;;;;;;;5037223;28;12197;-77
2022/03/14 01:29:18;;;;;;;;;9.00;7.00;;;;;;;;5019773;28;11442;-77
2022/03/14 01:31:45;;;;;;;;;6.00;6.00;;;;;;;;5019814;28;11344;-75
2022/03/14 01:34:14;;;;;;;;;6.50;6.50;;;;;;;;5014919;28;11443;-77
2022/03/14 01:36:42;;;;;;;;;4.50;4.50;;;;;;;;5013689;28;11415;-75
2022/03/14 01:39:09;;;;;;;;;5.50;2.75;;;;;;;;5020473;28;11441;-76
2022/03/14 01:41:36;;;;;;;;;5.50;5.50;;;;;;;;5001534;28;11436;-77
2022/03/14 01:44:04;;;;;;;;;5.50;4.50;;;;;;;;5002617;28;11534;-77
2022/03/14 01:46:34;;;;;;;;;5.00;5.00;;;;;;;;5017039;28;11188;-76
2022/03/14 01:49:01;;;;;;;;;3.00;3.00;;;;;;;;5019813;28;11408;-75
2022/03/14 01:51:29;;;;;;;;;5.00;5.00;;;;;;;;5019014;28;11251;-77
2022/03/14 01:53:57;;;;;;;;;3.00;3.00;;;;;;;;5018687;28;11754;-76
2022/03/14 01:56:25;;;;;;;;;5.00;4.50;;;;;;;;5021260;28;11407;-76
2022/03/14 01:58:54;;;;;;;;;3.00;3.00;;;;;;;;5020098;28;12222;-77
2022/03/14 02:01:22;;;;;;;;;3.00;3.00;;;;;;;;5001437;28;11367;-76
2022/03/14 02:03:51;;;;;;;;;2.00;0.25;;;;;;;;5029593;28;11145;-77
2022/03/14 02:06:19;;;;;;;;;2.00;2.00;;;;;;;;5019851;28;11077;-77
2022/03/14 02:08:46;;;;;;;;;2.00;2.00;;;;;;;;5018997;28;11417;-76
2022/03/14 02:11:13;;;;;;;;;2.25;2.25;;;;;;;;5025339;28;11270;-74
2022/03/14 02:13:41;;;;;;;;;1.25;1.25;;;;;;;;5023004;28;11115;-75
2022/03/14 02:16:08;;;;;;;;;4.50;2.00;;;;;;;;5001563;28;11178;-75
2022/03/14 02:18:35;;;;;;;;;1.50;1.50;;;;;;;;5021839;28;11391;-75
2022/03/14 02:21:04;;;;;;;;;1.25;1.25;;;;;;;;5018651;28;11017;-75
2022/03/14 02:23:32;;;;;;;;;1.00;1.00;;;;;;;;5023252;28;11160;-74
2022/03/14 02:26:02;;;;;;;;;1.00;1.00;;;;;;;;5005172;28;11078;-75
2022/03/14 02:28:31;;;;;;;;;3.50;1.75;;;;;;;;5021992;28;11931;-75
2022/03/14 02:30:58;;;;;;;;;0.25;0.25;;;;;;;;5021341;28;11224;-77
2022/03/14 02:33:26;;;;;;;;;3.00;2.00;;;;;;;;5022427;28;11123;-75
2022/03/14 02:35:53;;;;;;;;;2.75;1.00;;;;;;;;5023625;28;11209;-75
2022/03/14 02:38:22;;;;;;;;;1.50;1.50;;;;;;;;5023609;28;11054;-74
2022/03/14 02:40:50;;;;;;;;;3.00;2.00;;;;;;;;5036516;28;12175;-74
2022/03/14 02:43:20;;;;;;;;;0.50;0.50;;;;;;;;5021421;28;11250;-73
2022/03/14 02:45:47;;;;;;;;;1.00;1.00;;;;;;;;5020206;28;11416;-75
2022/03/14 02:48:15;;;;;;;;;2.00;2.00;;;;;;;;5006143;28;11459;-73
2022/03/14 02:50:43;;;;;;;;;2.00;2.00;;;;;;;;5022473;28;12148;-74
2022/03/14 02:53:11;;;;;;;;;2.00;2.00;;;;;;;;5022378;28;11468;-76
2022/03/14 02:55:40;;;;;;;;;1.00;1.00;;;;;;;;5021149;28;11410;-76
2022/03/14 02:58:08;;;;;;;;;2.00;2.00;;;;;;;;5021471;28;11438;-74
2022/03/14 03:00:36;;;;;;;;;2.00;2.00;;;;;;;;5021364;28;11344;-74
2022/03/14 03:03:04;;;;;;;;;1.50;1.50;;;;;;;;5022099;28;11531;-74
2022/03/14 03:05:35;;;;;;;;;1.00;1.00;;;;;;;;5020706;28;11410;-74
2022/03/14 03:08:03;;;;;;;;;1.00;1.00;;;;;;;;5022321;28;11224;-76
2022/03/14 03:10:31;;;;;;;;;2.00;2.00;;;;;;;;5023097;28;12178;-77
2022/03/14 03:13:00;;;;;;;;;3.75;1.75;;;;;;;;5014574;28;11469;-77
2022/03/14 03:15:27;;;;;;;;;1.00;1.00;;;;;;;;5023120;28;12166;-74
2022/03/14 03:17:54;;;;;;;;;0.00;0.00;;;;;;;;5004998;28;11430;-78
2022/03/14 03:20:22;;;;;;;;;1.00;1.00;;;;;;;;5021180;28;11395;-76
2022/03/14 03:22:49;;;;;;;;;0.00;0.00;;;;;;;;5021067;28;11427;-75
2022/03/14 03:25:17;;;;;;;;;1.00;1.00;;;;;;;;5004694;28;11398;-77
2022/03/14 03:27:44;;;;;;;;;1.00;1.00;;;;;;;;5022765;28;11414;-75
2022/03/14 03:30:13;;;;;;;;;1.00;1.00;;;;;;;;5020728;28;11404;-77
2022/03/14 03:32:41;;;;;;;;;1.00;1.00;;;;;;;;5022715;28;11517;-75
2022/03/14 03:35:08;;;;;;;;;2.00;2.00;;;;;;;;5003110;28;11386;-74
2022/03/14 03:37:36;;;;;;;;;2.00;2.00;;;;;;;;5018435;28;11415;-75
2022/03/14 03:40:05;;;;;;;;;1.00;1.00;;;;;;;;5029483;28;11410;-76
2022/03/14 03:42:32;;;;;;;;;6.50;1.75;;;;;;;;5004620;28;11439;-77
2022/03/14 03:45:00;;;;;;;;;2.00;2.00;;;;;;;;5023636;28;11404;-75
2022/03/14 03:47:28;;;;;;;;;1.00;1.00;;;;;;;;5023935;28;12050;-75
2022/03/14 03:49:57;;;;;;;;;5.00;2.25;;;;;;;;5022804;28;11534;-75
2022/03/14 03:52:24;;;;;;;;;0.50;0.50;;;;;;;;5015546;28;11428;-75
2022/03/14 03:54:51;;;;;;;;;2.00;2.00;;;;;;;;5002590;28;12090;-74
2022/03/14 03:57:18;;;;;;;;;3.00;3.00;;;;;;;;5021789;28;11624;-75
2022/03/14 03:59:45;;;;;;;;;1.50;1.00;;;;;;;;5023850;28;11402;-74
2022/03/14 04:02:16;;;;;;;;;2.00;2.00;;;;;;;;5022475;28;11378;-77
2022/03/14 04:04:46;;;;;;;;;2.50;2.50;;;;;;;;5004024;28;11421;-74
2022/03/14 04:07:16;;;;;;;;;1.50;1.50;;;;;;;;5021401;28;11428;-76
2022/03/14 04:09:43;;;;;;;;;3.25;1.00;;;;;;;;5023165;28;12211;-74
2022/03/14 04:12:11;;;;;;;;;0.75;0.75;;;;;;;;5012282;28;11472;-74
2022/03/14 04:14:38;;;;;;;;;2.00;2.00;;;;;;;;5021773;28;11461;-76
2022/03/14 04:17:07;;;;;;;;;1.00;1.00;;;;;;;;5020825;28;11418;-75
2022/03/14 04:19:36;;;;;;;;;0.25;0.25;;;;;;;;5023360;28;11426;-76
2022/03/14 04:22:07;;;;;;;;;0.50;0.50;;;;;;;;5020522;28;11541;-76
2022/03/14 04:24:36;;;;;;;;;1.00;1.00;;;;;;;;5021723;28;11480;-75
2022/03/14 04:27:04;;;;;;;;;0.00;0.00;;;;;;;;5022958;28;12251;-75
2022/03/14 04:29:32;;;;;;;;;3.00;1.00;;;;;;;;5020081;28;11427;-75
2022/03/14 04:31:59;;;;;;;;;0.00;0.00;;;;;;;;5020611;28;11373;-76
2022/03/14 04:34:27;;;;;;;;;2.00;0.00;;;;;;;;5023250;28;11452;-76
2022/03/14 04:36:54;;;;;;;;;0.25;0.25;;;;;;;;5021295;28;11403;-75
2022/03/14 04:39:23;;;;;;;;;0.50;0.50;;;;;;;;5020509;28;11464;-76
2022/03/14 04:41:51;;;;;;;;;0.75;0.75;;;;;;;;5019742;28;11430;-74
2022/03/14 04:44:21;;;;;;;;;0.00;0.00;;;;;;;;5020187;28;12170;-74
2022/03/14 04:46:48;;;;;;;;;0.00;0.00;;;;;;;;5020585;28;11470;-75
2022/03/14 04:49:16;;;;;;;;;0.00;0.00;;;;;;;;5019400;28;11420;-75
2022/03/14 04:51:44;;;;;;;;;0.00;0.00;;;;;;;;5016400;28;11464;-75
2022/03/14 04:54:11;;;;;;;;;1.00;1.00;;;;;;;;5021220;28;12255;-74
2022/03/14 04:56:40;;;;;;;;;0.00;0.00;;;;;;;;5018931;28;11511;-75
2022/03/14 04:59:07;;;;;;;;;1.00;1.00;;;;;;;;5020617;28;11479;-75
2022/03/14 05:01:35;;;;;;;;;0.50;0.50;;;;;;;;5020014;28;11426;-75
2022/03/14 05:04:02;;;;;;;;;0.00;0.00;;;;;;;;5018572;28;11482;-75
2022/03/14 05:06:32;;;;;;;;;0.00;0.00;;;;;;;;5023100;28;11503;-74
2022/03/14 05:09:00;;;;;;;;;0.00;0.00;;;;;;;;5023844;28;11494;-74
2022/03/14 05:11:27;;;;;;;;;0.00;0.00;;;;;;;;5021936;28;11533;-74
2022/03/14 05:13:56;;;;;;;;;0.00;0.00;;;;;;;;5019838;28;11579;-77
2022/03/14 05:16:23;;;;;;;;;0.00;0.00;;;;;;;;5019824;28;12371;-77
2022/03/14 05:18:50;;;;;;;;;0.00;0.00;;;;;;;;5019384;28;11598;-77
2022/03/14 05:21:18;;;;;;;;;1.00;1.00;;;;;;;;5020756;28;11466;-75
2022/03/14 05:23:45;;;;;;;;;1.00;1.00;;;;;;;;5019930;28;12207;-72
2022/03/14 05:26:12;;;;;;;;;1.00;1.00;;;;;;;;5019812;28;11591;-74
2022/03/14 05:28:39;;;;;;;;;0.75;0.75;;;;;;;;5020933;28;11492;-72
2022/03/14 05:31:08;;;;;;;;;1.00;1.00;;;;;;;;5017762;28;11489;-75
2022/03/14 05:33:36;;;;;;;;;1.00;1.00;;;;;;;;5025668;28;11452;-73
2022/03/14 05:36:06;;;;;;;;;2.00;1.00;;;;;;;;5016534;28;11474;-73
2022/03/14 05:38:34;;;;;;;;;0.50;0.00;;;;;;;;5017330;28;11457;-73
2022/03/14 05:41:01;;;;;;;;;4.00;1.00;;;;;;;;5027926;28;12273;-75
2022/03/14 05:43:36;;;;;;;;;1.00;1.00;;;;;;;;5016486;28;11446;-73
2022/03/14 05:46:03;;;;;;;;;1.75;0.50;;;;;;;;5017898;28;11439;-74
2022/03/14 05:48:32;;;;;;;;;1.00;1.00;;;;;;;;5018028;28;11456;-73
2022/03/14 05:51:00;;;;;;;;;1.00;1.00;;;;;;;;5005775;28;11529;-75
2022/03/14 05:53:28;;;;;;;;;1.00;1.00;;;;;;;;5018626;28;11466;-74
2022/03/14 05:55:55;;;;;;;;;5.25;1.25;;;;;;;;5020299;28;11540;-74
2022/03/14 05:58:23;;;;;;;;;2.00;2.00;;;;;;;;5019290;28;11574;-74
2022/03/14 06:00:52;;;;;;;;;2.50;1.25;;;;;;;;5009274;28;11429;-75
2022/03/14 06:03:21;;;;;;;;;1.00;1.00;;;;;;;;5025139;28;11469;-74
2022/03/14 06:05:50;;;;;;;;;5.00;1.00;;;;;;;;5025839;28;11491;-76
2022/03/14 06:08:18;;;;;;;;;2.00;2.00;;;;;;;;5027737;28;11564;-74
2022/03/14 06:10:46;;;;;;;;;4.50;4.50;;;;;;;;5035323;28;11489;-74
2022/03/14 06:13:14;;;;;;;;;4.75;4.75;;;;;;;;5026697;28;11477;-77
2022/03/14 06:15:41;;;;;;;;;5.00;3.00;;;;;;;;5023995;28;11496;-75
2022/03/14 06:18:08;;;;;;;;;5.50;5.50;;;;;;;;5009267;28;11477;-75
2022/03/14 06:20:36;;;;;;;;;8.75;4.25;;;;;;;;5022356;28;11472;-79
2022/03/14 06:23:04;;;;;;;;;6.25;5.00;;;;;;;;5019169;28;11492;-77
2022/03/14 06:25:32;;;;;;;;;10.50;6.00;;;;;;;;5019951;28;11444;-79
2022/03/14 06:27:59;;;;;;;;;8.25;7.00;;;;;;;;5021216;28;11480;-79
2022/03/14 06:30:26;;;;;;;;;12.50;9.50;;;;;;;;5023006;28;11456;-82
2022/03/14 06:32:54;;;;;;;;;8.75;8.75;;;;;;;;5019575;28;11511;-81
2022/03/14 06:35:22;;;;;;;;;14.25;11.75;;;;;;;;5008114;28;11508;-81
2022/03/14 06:37:50;;;;;;;;;12.75;10.50;;;;;;;;5019848;28;11508;-76
2022/03/14 06:40:21;;;;;;;;;12.00;9.75;;;;;;;;5007083;28;12132;-78
2022/03/14 06:42:51;;;;;;;;;13.00;13.00;;;;;;;;5022359;28;11777;-78
2022/03/14 06:45:23;;;;;;;;;14.25;11.00;;;;;;;;5022465;28;11631;-84
2022/03/14 06:47:53;;;;;;;;;10.00;10.00;;;;;;;;5031156;28;11470;-81
2022/03/14 06:50:23;;;;;;;;;17.00;11.00;;;;;;;;5020499;28;11476;-79
2022/03/14 06:52:50;;;;;;;;;8.50;8.50;;;;;;;;5024231;28;12181;-80
2022/03/14 06:55:19;;;;;;;;;11.50;11.50;;;;;;;;5022849;28;11479;-79
2022/03/14 06:57:48;;;;;;;;;9.00;9.00;;;;;;;;5004908;28;11481;-78
2022/03/14 07:00:16;;;;;;;;;10.50;10.50;;;;;;;;5032295;28;11488;-83
2022/03/14 07:02:43;;;;;;;;;12.25;9.75;;;;;;;;5026383;28;11480;-80
2022/03/14 07:05:17;;;;;;;;;11.00;9.25;;;;;;;;5032383;28;11581;-79
2022/03/14 07:07:45;;;;;;;;;15.25;10.50;;;;;;;;5004592;28;11492;-76
2022/03/14 07:10:13;;;;;;;;;12.25;12.25;;;;;;;;5027931;28;11569;-77
2022/03/14 07:12:46;;;;;;;;;11.00;9.00;;;;;;;;5027874;28;12067;-77
2022/03/14 07:15:14;;;;;;;;;10.75;8.50;;;;;;;;5030903;28;11572;-76
2022/03/14 07:17:42;;;;;;;;;9.00;9.00;;;;;;;;5029906;28;11523;-80
2022/03/14 07:20:11;;;;;;;;;9.00;9.00;;;;;;;;5033586;28;11487;-78
2022/03/14 07:22:49;;;;;;;;;12.50;9.00;;;;;;;;5041164;28;11479;-75
2022/03/14 07:25:23;;;;;;;;;6.75;6.75;;;;;;;;5026282;28;11517;-75
2022/03/14 07:27:52;;;;;;;;;12.25;9.75;;;;;;;;5029936;28;11487;-75
2022/03/14 07:30:20;;;;;;;;;10.75;9.25;;;;;;;;5027577;28;11465;-76
2022/03/14 07:32:47;;;;;;;;;9.25;8.75;;;;;;;;5033771;28;11475;-76
2022/03/14 07:35:15;;;;;;;;;13.25;13.25;;;;;;;;5024811;28;11470;-75
2022/03/14 07:37:44;;;;;;;;;10.00;10.00;;;;;;;;5023826;28;11505;-75
2022/03/14 07:40:13;;;;;;;;;10.75;10.75;;;;;;;;5022416;28;11483;-75
2022/03/14 07:42:42;;;;;;;;;11.25;11.25;;;;;;;;5023329;28;11624;-76
2022/03/14 07:45:11;;;;;;;;;11.00;11.00;;;;;;;;5017763;28;11487;-76
2022/03/14 07:47:40;;;;;;;;;15.00;15.00;;;;;;;;5025029;28;11522;-75
2022/03/14 07:50:09;;;;;;;;;10.00;10.00;;;;;;;;5026676;28;11565;-76
2022/03/14 07:52:38;;;;;;;;;11.25;9.25;;;;;;;;5025203;28;11526;-75
2022/03/14 07:55:06;;;;;;;;;11.50;10.00;;;;;;;;5033296;28;11585;-75
2022/03/14 07:57:34;;;;;;;;;14.00;10.00;;;;;;;;5028525;28;11475;-78
2022/03/14 08:00:02;;;;;;;;;9.00;9.00;;;;;;;;5020763;28;11617;-77
2022/03/14 08:02:31;;;;;;;;;9.75;9.75;;;;;;;;5023099;28;11393;-78
2022/03/14 08:04:58;;;;;;;;;14.00;12.50;;;;;;;;5021241;28;12239;-78
2022/03/14 08:07:26;;;;;;;;;9.50;9.50;;;;;;;;5021863;28;11938;-75
2022/03/14 08:09:53;;;;;;;;;11.00;11.00;;;;;;;;5022750;28;11492;-76
2022/03/14 08:12:22;;;;;;;;;10.50;9.00;;;;;;;;5021155;28;12180;-75
2022/03/14 08:14:50;;;;;;;;;14.00;13.00;;;;;;;;5036168;28;11564;-75
2022/03/14 08:17:18;;;;;;;;;13.50;13.50;;;;;;;;5022917;28;11454;-75
2022/03/14 08:19:47;;;;;;;;;10.75;9.25;;;;;;;;5022259;28;11450;-75
2022/03/14 08:22:14;;;;;;;;;6.50;6.50;;;;;;;;5028394;28;11436;-77
2022/03/14 08:24:41;;;;;;;;;10.25;7.50;;;;;;;;5022943;28;12268;-76
2022/03/14 08:27:09;;;;;;;;;11.50;9.75;;;;;;;;5036175;28;11478;-76
2022/03/14 08:29:37;;;;;;;;;8.00;8.00;;;;;;;;5035054;28;11478;-76
2022/03/14 08:32:08;;;;;;;;;5.00;5.00;;;;;;;;5021953;28;11373;-75
2022/03/14 08:34:36;;;;;;;;;7.00;7.00;;;;;;;;5031779;28;11425;-75
2022/03/14 08:37:05;;;;;;;;;11.00;9.00;;;;;;;;5015888;28;11382;-75
2022/03/14 08:39:33;;;;;;;;;6.00;6.00;;;;;;;;5020982;28;12339;-76
2022/03/14 08:42:04;;;;;;;;;14.50;7.00;;;;;;;;5023680;28;11485;-75
2022/03/14 08:44:31;;;;;;;;;10.50;7.00;;;;;;;;5019064;28;12021;-75
2022/03/14 08:46:58;;;;;;;;;9.00;7.00;;;;;;;;5026608;28;12300;-74
2022/03/14 08:49:26;;;;;;;;;8.25;6.50;;;;;;;;5020424;28;11243;-75
2022/03/14 08:51:53;;;;;;;;;10.00;7.00;;;;;;;;5018696;28;11201;-76
2022/03/14 08:54:22;;;;;;;;;7.25;6.50;;;;;;;;5022414;28;11193;-75
2022/03/14 08:56:49;;;;;;;;;10.00;10.00;;;;;;;;5021113;28;11817;-73
2022/03/14 08:59:17;;;;;;;;;11.75;11.75;;;;;;;;5026632;28;11297;-76
2022/03/14 09:01:44;;;;;;;;;10.00;7.00;;;;;;;;5024624;28;11973;-77
2022/03/14 09:04:12;;;;;;;;;7.00;7.00;;;;;;;;5007736;28;11075;-77
2022/03/14 09:06:42;;;;;;;;;12.50;9.50;;;;;;;;5021089;28;10986;-77
2022/03/14 09:09:09;;;;;;;;;12.00;8.00;;;;;;;;5004884;28;11023;-77
2022/03/14 09:11:38;;;;;;;;;7.50;7.00;;;;;;;;5025909;28;11357;-77
2022/03/14 09:14:07;;;;;;;;;7.25;6.00;;;;;;;;5021048;28;10872;-77
2022/03/14 09:16:35;;;;;;;;;3.00;3.00;;;;;;;;5003660;28;10874;-77
2022/03/14 09:19:02;;;;;;;;;11.25;10.50;;;;;;;;5003554;28;11400;-77
2022/03/14 09:21:33;;;;;;;;;8.50;6.75;;;;;;;;5004123;28;10828;-77
2022/03/14 09:24:02;;;;;;;;;6.25;5.50;;;;;;;;5020697;28;10714;-77
2022/03/14 09:26:31;;;;;;;;;8.00;8.00;;;;;;;;5004043;28;10751;-77
2022/03/14 09:28:59;;;;;;;;;12.00;11.00;;;;;;;;5021808;28;10769;-77
2022/03/14 09:31:27;;;;;;;;;13.25;12.50;;;;;;;;5018501;28;11748;-77
2022/03/14 09:33:54;;;;;;;;;7.25;7.25;;;;;;;;5026588;28;10849;-77
2022/03/14 09:36:21;;;;;;;;;6.50;6.00;;;;;;;;5002523;28;10620;-77
2022/03/14 09:38:49;;;;;;;;;7.25;7.25;;;;;;;;5004049;28;10610;-77
2022/03/14 09:41:19;;;;;;;;;5.50;5.50;;;;;;;;5020325;28;10340;-77
2022/03/14 09:43:49;;;;;;;;;7.75;7.75;;;;;;;;5021376;28;10139;-77
2022/03/14 09:46:18;;;;;;;;;11.50;6.00;;;;;;;;5020951;28;10959;-77
2022/03/14 09:48:50;;;;;;;;;9.00;8.75;;;;;;;;5020057;28;10046;-77
2022/03/14 09:51:18;;;;;;;;;7.75;7.25;;;;;;;;5020978;28;10124;-77
2022/03/14 09:53:46;;;;;;;;;10.25;8.00;;;;;;;;5020127;28;10019;-77
2022/03/14 09:56:13;;;;;;;;;6.50;6.50;;;;;;;;5021299;28;10097;-77
2022/03/14 09:58:41;;;;;;;;;6.00;6.00;;;;;;;;5020568;28;10070;-77
2022/03/14 10:01:08;;;;;;;;;8.00;8.00;;;;;;;;5020533;28;9934;-78
2022/03/14 10:03:38;;;;;;;;;9.25;7.75;;;;;;;;5021128;28;10068;-77
2022/03/14 10:06:05;;;;;;;;;11.75;9.00;;;;;;;;5011361;28;9902;-77
2022/03/14 10:08:34;;;;;;;;;12.75;8.75;;;;;;;;5020729;28;10564;-77
2022/03/14 10:11:01;;;;;;;;;8.50;8.00;;;;;;;;5019603;28;9644;-78
2022/03/14 10:13:28;;;;;;;;;5.00;5.00;;;;;;;;5020630;28;9521;-78
2022/03/14 10:15:55;;;;;;;;;6.33;4.00;;;;;;;;5019389;28;9522;-77
2022/03/14 10:18:23;;;;;;;;;9.00;7.50;;;;;;;;5021062;28;9750;-79
2022/03/14 10:21:02;;;;;;;;;6.33;6.33;;;;;;;;5020326;28;9473;-78
2022/03/14 10:23:33;;;;;;;;;8.33;8.33;;;;;;;;5021855;28;9339;-76
2022/03/14 10:26:01;;;;;;;;;6.67;5.67;;;;;;;;4998182;28;10170;-78
2022/03/14 10:28:31;;;;;;;;;5.00;5.00;;;;;;;;5014876;28;9230;-77
2022/03/14 10:31:01;;;;;;;;;8.67;8.67;;;;;;;;5020130;28;9193;-76
2022/03/14 10:33:30;;;;;;;;;9.00;7.25;;;;;;;;5017917;28;8955;-79
2022/03/14 10:35:59;;;;;;;;;6.75;5.00;;;;;;;;5021427;28;9585;-78
2022/03/14 10:38:26;;;;;;;;;8.50;5.25;;;;;;;;5020068;28;8851;-78
2022/03/14 10:40:56;;;;;;;;;6.00;5.25;;;;;;;;5023108;28;8893;-78
2022/03/14 10:43:26;;;;;;;;;4.25;4.25;;;;;;;;5027100;28;8848;-76
2022/03/14 10:45:54;;;;;;;;;3.75;3.75;;;;;;;;5028182;28;8892;-78
2022/03/14 10:48:39;;;;;;;;;4.75;3.75;;;;;;;;5031664;28;8938;-78
2022/03/14 10:51:10;;;;;;;;;6.00;5.75;;;;;;;;5024736;28;8898;-79
2022/03/14 10:53:42;;;;;;;;;4.75;4.75;;;;;;;;5023710;28;8964;-77
2022/03/14 10:56:09;;;;;;;;;4.25;3.75;;;;;;;;5024551;28;8871;-78
2022/03/14 10:58:38;;;;;;;;;3.00;3.00;;;;;;;;5023112;28;8887;-78
2022/03/14 11:01:06;;;;;;;;;7.00;5.00;;;;;;;;5023579;28;8822;-78
2022/03/14 11:03:35;;;;;;;;;6.25;4.00;;;;;;;;5022274;28;8914;-78
2022/03/14 11:06:04;;;;;;;;;6.00;4.00;;;;;;;;5024684;28;9004;-79
2022/03/14 11:08:35;;;;;;;;;4.25;4.25;;;;;;;;5004975;28;9710;-79
2022/03/14 11:11:05;;;;;;;;;5.25;5.00;;;;;;;;5026256;28;9362;-79
2022/03/14 11:13:32;;;;;;;;;5.00;5.00;;;;;;;;5028063;28;8913;-79
2022/03/14 11:16:00;;;;;;;;;4.25;4.25;;;;;;;;5024819;28;9149;-80
2022/03/14 11:18:27;;;;;;;;;4.50;3.75;;;;;;;;5026676;28;8889;-79
2022/03/14 11:20:55;;;;;;;;;5.00;3.75;;;;;;;;5021203;28;8882;-79
2022/03/14 11:23:25;;;;;;;;;5.75;5.25;;;;;;;;5022357;28;8870;-79
2022/03/14 11:25:54;;;;;;;;;8.75;6.50;;;;;;;;5022736;28;8909;-80
2022/03/14 11:28:22;;;;;;;;;6.25;6.00;;;;;;;;5023224;28;8897;-79
2022/03/14 11:31:03;;;;;;;;;4.75;4.75;;;;;;;;5027084;28;8859;-79
2022/03/14 11:33:35;;;;;;;;;4.75;4.75;;;;;;;;5025375;28;8916;-79
2022/03/14 11:36:06;;;;;;;;;3.75;2.00;;;;;;;;5020682;28;8882;-77
2022/03/14 11:38:35;;;;;;;;;5.25;5.25;;;;;;;;5021991;28;8878;-76
2022/03/14 11:41:05;;;;;;;;;5.25;4.00;;;;;;;;5017006;28;8879;-79
2022/03/14 11:43:33;;;;;;;;;3.00;3.00;;;;;;;;5026453;28;8882;-79
2022/03/14 11:46:03;;;;;;;;;7.75;4.00;;;;;;;;5003377;28;8866;-79
2022/03/14 11:48:33;;;;;;;;;4.75;4.75;;;;;;;;5021509;28;8959;-76
2022/03/14 11:51:02;;;;;;;;;3.75;3.00;;;;;;;;5021577;28;8858;-76
2022/03/14 11:53:33;;;;;;;;;6.75;5.00;;;;;;;;5036303;28;8941;-76
2022/03/14 11:56:05;;;;;;;;;4.00;2.75;;;;;;;;5020365;28;9435;-77
2022/03/14 11:58:37;;;;;;;;;5.50;3.50;;;;;;;;5022113;28;8881;-76
2022/03/14 12:01:16;;;;;;;;;7.25;4.00;;;;;;;;5016795;28;8810;-77
2022/03/14 12:03:47;;;;;;;;;5.75;4.00;;;;;;;;5019961;28;8978;-78
2022/03/14 12:06:14;;;;;;;;;4.00;3.25;;;;;;;;5021603;28;8981;-79
2022/03/14 12:09:00;;;;;;;;;4.50;4.50;;;;;;;;5022596;28;8882;-78
2022/03/14 12:11:43;;;;;;;;;2.25;2.25;;;;;;;;5022605;28;8873;-82
2022/03/14 12:14:14;;;;;;;;;4.50;3.00;;;;;;;;5019056;28;8879;-78
2022/03/14 12:16:46;;;;;;;;;3.00;2.25;;;;;;;;5019234;28;8951;-79
2022/03/14 12:19:36;;;;;;;;;6.00;5.00;;;;;;;;5021753;28;8846;-78
2022/03/14 12:22:06;;;;;;;;;2.25;2.25;;;;;;;;5020142;28;8861;-78
2022/03/14 12:24:49;;;;;;;;;4.50;3.75;;;;;;;;5022051;28;8985;-79
2022/03/14 12:27:35;;;;;;;;;1.25;1.25;;;;;;;;5021104;28;8842;-83
2022/03/14 12:30:06;;;;;;;;;1.50;1.00;;;;;;;;5014971;28;8902;-82
2022/03/14 12:32:37;;;;;;;;;1.75;0.75;;;;;;;;5019391;28;8856;-80
2022/03/14 12:35:08;;;;;;;;;2.50;2.50;;;;;;;;5021921;28;8862;-81
2022/03/14 12:37:54;;;;;;;;;5.00;2.00;;;;;;;;5022513;28;8874;-83
2022/03/14 12:40:44;;;;;;;;;1.00;1.00;;;;;;;;5020701;28;8866;-82
2022/03/14 12:43:28;;;;;;;;;4.00;2.50;;;;;;;;5020575;28;9524;-82
2022/03/14 12:45:58;;;;;;;;;4.00;2.00;;;;;;;;5017967;28;8992;-82
2022/03/14 12:48:27;;;;;;;;;3.00;1.50;;;;;;;;5012253;28;8967;-82
2022/03/14 12:51:05;;;;;;;;;1.00;1.00;;;;;;;;5022716;28;9653;-81
2022/03/14 12:53:46;;;;;;;;;1.00;1.00;;;;;;;;5021540;28;8868;-81
2022/03/14 12:56:16;;;;;;;;;1.00;1.00;;;;;;;;5020851;28;8850;-83
2022/03/14 12:59:09;;;;;;;;;2.00;2.00;;;;;;;;5022620;28;8996;-81
2022/03/14 13:01:37;;;;;;;;;1.80;1.60;;;;;;;;5005076;28;10916;-82
2022/03/14 13:04:06;;;;;;;;;1.00;1.00;;;;;;;;5021587;28;8873;-85
2022/03/14 13:06:38;;;;;;;;;2.40;0.80;;;;;;;;5021971;28;8870;-84
2022/03/14 13:09:06;;;;;;;;;1.20;1.20;;;;;;;;5003146;28;9655;-84
2022/03/14 13:11:37;;;;;;;;;3.00;2.00;;;;;;;;5030083;28;8882;-85
2022/03/14 13:14:11;;;;;;;;;2.00;2.00;;;;;;;;5022174;28;10500;-84
2022/03/14 13:16:41;;;;;;;;;2.80;1.00;;;;;;;;5001056;28;8876;-84
2022/03/14 13:19:19;;;;;;;;;3.20;1.00;;;;;;;;5017438;28;8940;-84
2022/03/14 13:21:47;;;;;;;;;2.60;1.00;;;;;;;;5018248;28;8903;-84
2022/03/14 13:24:15;;;;;;;;;2.00;2.00;;;;;;;;5020949;28;8916;-84
2022/03/14 13:26:45;;;;;;;;;0.60;0.60;;;;;;;;5020246;28;9784;-84
2022/03/14 13:29:14;;;;;;;;;1.00;1.00;;;;;;;;5019657;28;9009;-84
2022/03/14 13:31:43;;;;;;;;;1.60;1.60;;;;;;;;5019413;28;8818;-84
2022/03/14 13:34:12;;;;;;;;;1.60;1.60;;;;;;;;5027524;28;8893;-84
2022/03/14 13:36:41;;;;;;;;;4.00;2.00;;;;;;;;5025191;28;9000;-84
2022/03/14 13:39:10;;;;;;;;;1.00;1.00;;;;;;;;5024486;28;8866;-84
2022/03/14 13:41:38;;;;;;;;;1.40;0.00;;;;;;;;5018069;28;9636;-83
2022/03/14 13:44:08;;;;;;;;;1.20;1.20;;;;;;;;5016786;28;8901;-82
2022/03/14 13:46:38;;;;;;;;;1.00;1.00;;;;;;;;5021434;28;8866;-83
2022/03/14 13:49:07;;;;;;;;;1.00;1.00;;;;;;;;5019335;28;8941;-83
2022/03/14 13:51:37;;;;;;;;;1.00;1.00;;;;;;;;5021498;28;8854;-84
2022/03/14 13:54:10;;;;;;;;;1.00;1.00;;;;;;;;5020823;28;8888;-84
2022/03/14 13:56:40;;;;;;;;;1.20;1.20;;;;;;;;5021499;28;8987;-83
2022/03/14 13:59:08;;;;;;;;;1.20;0.40;;;;;;;;5004297;28;8830;-83
2022/03/14 14:01:47;;;;;;;;;3.00;1.00;;;;;;;;5029578;28;8832;-85
2022/03/14 14:04:18;;;;;;;;;0.80;0.80;;;;;;;;5014106;28;8878;-84
2022/03/14 14:06:48;;;;;;;;;1.20;1.00;;;;;;;;5022865;28;8951;-84
2022/03/14 14:09:31;;;;;;;;;1.40;1.40;;;;;;;;5020517;28;8869;-84
2022/03/14 14:12:00;;;;;;;;;2.00;0.00;;;;;;;;5006129;28;8916;-84
2022/03/14 14:14:27;;;;;;;;;1.00;1.00;;;;;;;;5020113;28;8901;-84
2022/03/14 14:17:09;;;;;;;;;0.60;0.60;;;;;;;;5021500;28;8862;-85
2022/03/14 14:19:36;;;;;;;;;2.20;1.00;;;;;;;;5028586;28;8890;-84
2022/03/14 14:22:04;;;;;;;;;2.00;2.00;;;;;;;;5025635;28;8879;-84
2022/03/14 14:24:32;;;;;;;;;2.00;2.00;;;;;;;;5023024;28;8866;-83
2022/03/14 14:27:00;;;;;;;;;0.80;0.80;;;;;;;;5007057;28;8916;-83
2022/03/14 14:29:43;;;;;;;;;1.50;1.25;;;;;;;;5025256;28;8917;-83
2022/03/14 14:32:17;;;;;;;;;3.00;1.50;;;;;;;;5022477;28;8818;-83
2022/03/14 14:34:44;;;;;;;;;3.00;1.20;;;;;;;;5025864;28;8869;-83
2022/03/14 14:37:11;;;;;;;;;3.00;2.00;;;;;;;;5022685;28;8889;-83
2022/03/14 14:39:39;;;;;;;;;1.00;1.00;;;;;;;;5028130;28;8870;-83
2022/03/14 14:42:08;;;;;;;;;4.80;2.00;;;;;;;;5023081;28;8920;-84
2022/03/14 14:44:35;;;;;;;;;0.80;0.80;;;;;;;;5024454;28;9970;-86
2022/03/14 14:47:04;;;;;;;;;1.20;1.20;;;;;;;;5024981;28;8969;-86
2022/03/14 14:49:33;;;;;;;;;5.00;2.00;;;;;;;;5028419;28;8858;-85
2022/03/14 14:52:00;;;;;;;;;2.20;2.00;;;;;;;;5027183;28;8887;-84